EWG7HR LOWS-EDDH
Flight info
| Callsign | EWG7HR |
|---|---|
| Flight time | 1h 1m |
| Altitude | 34000 |
| Route | INROM2A/33 INROM DCT SIMBA Y700 NENUM DCT EPTEU L604 RUDNO M736 AKOSI DCT ABGUS DCT DIRBO/N0398F230 T902 RARUP RARUP3P |
| Aircraft | A319/M-SDE3FGHIRWY/LB1 |
Departure
| Time | 2026-04-22 20:28 |
|---|---|
| Airport | Salzburg Airport (LOWS) |
Arrival
| Time | 2026-04-22 21:29 |
|---|---|
| Airport | Hamburg Helmut Schmidt Airport (EDDH) |
| Time | Latitude | Longitude | Altitude | Speed | Heading |
|---|---|---|---|---|---|
| 2026-04-22 20:27 | 48.05242 | 13.15903 | 7890 ft | 276 kts | 334° |
| 2026-04-22 20:28 | 48.06901 | 13.14570 | 8248 ft | 269 kts | 332° |
| 2026-04-22 20:28 | 48.08557 | 13.13228 | 8926 ft | 272 kts | 333° |
| 2026-04-22 20:28 | 48.10234 | 13.11878 | 9800 ft | 275 kts | 333° |
| 2026-04-22 20:28 | 48.11933 | 13.10518 | 10660 ft | 278 kts | 334° |
| 2026-04-22 20:29 | 48.13643 | 13.09148 | 11517 ft | 281 kts | 334° |
| 2026-04-22 20:29 | 48.15375 | 13.07754 | 11871 ft | 281 kts | 335° |
| 2026-04-22 20:29 | 48.17077 | 13.06376 | 11973 ft | 281 kts | 335° |
| 2026-04-22 20:29 | 48.18792 | 13.04989 | 12026 ft | 280 kts | 335° |
| 2026-04-22 20:30 | 48.20501 | 13.03609 | 12081 ft | 280 kts | 335° |
| 2026-04-22 20:30 | 48.22222 | 13.02216 | 12131 ft | 282 kts | 335° |
| 2026-04-22 20:30 | 48.23949 | 13.00811 | 12182 ft | 283 kts | 335° |
| 2026-04-22 20:30 | 48.25681 | 12.99400 | 12231 ft | 283 kts | 335° |
| 2026-04-22 20:31 | 48.27513 | 12.98379 | 12280 ft | 279 kts | 353° |
| 2026-04-22 20:31 | 48.29440 | 12.98075 | 12330 ft | 279 kts | 357° |
| 2026-04-22 20:31 | 48.31377 | 12.97813 | 12734 ft | 281 kts | 357° |
| 2026-04-22 20:31 | 48.33327 | 12.97555 | 13612 ft | 282 kts | 357° |
| 2026-04-22 20:32 | 48.35303 | 12.97293 | 14388 ft | 284 kts | 357° |
| 2026-04-22 20:32 | 48.37294 | 12.97027 | 14828 ft | 299 kts | 358° |
| 2026-04-22 20:32 | 48.39449 | 12.96742 | 15003 ft | 322 kts | 357° |
| 2026-04-22 20:32 | 48.41723 | 12.96440 | 15465 ft | 332 kts | 357° |
| 2026-04-22 20:33 | 48.44044 | 12.96123 | 16105 ft | 336 kts | 357° |
| 2026-04-22 20:33 | 48.46388 | 12.95799 | 16762 ft | 340 kts | 357° |
| 2026-04-22 20:33 | 48.48752 | 12.95474 | 17411 ft | 343 kts | 357° |
| 2026-04-22 20:33 | 48.51140 | 12.95147 | 18060 ft | 346 kts | 358° |
| 2026-04-22 20:34 | 48.53551 | 12.94819 | 18685 ft | 349 kts | 358° |
| 2026-04-22 20:34 | 48.55982 | 12.94420 | 19300 ft | 353 kts | 355° |
| 2026-04-22 20:34 | 48.58437 | 12.93912 | 19915 ft | 357 kts | 355° |
| 2026-04-22 20:34 | 48.60912 | 12.93347 | 20534 ft | 360 kts | 354° |
| 2026-04-22 20:35 | 48.63367 | 12.92770 | 21111 ft | 363 kts | 354° |
| 2026-04-22 20:35 | 48.65837 | 12.91825 | 21643 ft | 371 kts | 343° |
| 2026-04-22 20:35 | 48.68278 | 12.90493 | 22194 ft | 374 kts | 343° |
| 2026-04-22 20:35 | 48.70738 | 12.89147 | 22722 ft | 377 kts | 343° |
| 2026-04-22 20:36 | 48.73216 | 12.87788 | 23233 ft | 380 kts | 343° |
| 2026-04-22 20:36 | 48.75715 | 12.86413 | 23717 ft | 384 kts | 343° |
| 2026-04-22 20:36 | 48.78234 | 12.85025 | 24192 ft | 387 kts | 343° |
| 2026-04-22 20:36 | 48.80772 | 12.83625 | 24641 ft | 390 kts | 344° |
| 2026-04-22 20:37 | 48.83333 | 12.82210 | 25083 ft | 393 kts | 343° |
| 2026-04-22 20:37 | 48.85910 | 12.80785 | 25510 ft | 396 kts | 344° |
| 2026-04-22 20:37 | 48.88512 | 12.79343 | 25927 ft | 399 kts | 344° |
| 2026-04-22 20:37 | 48.91127 | 12.77894 | 26339 ft | 402 kts | 344° |
| 2026-04-22 20:38 | 48.93768 | 12.76431 | 26719 ft | 406 kts | 344° |
| 2026-04-22 20:38 | 48.96431 | 12.74953 | 27100 ft | 409 kts | 344° |
| 2026-04-22 20:38 | 48.99120 | 12.73460 | 27499 ft | 412 kts | 345° |
| 2026-04-22 20:38 | 49.01823 | 12.71961 | 27873 ft | 415 kts | 345° |
| 2026-04-22 20:39 | 49.04546 | 12.70447 | 28236 ft | 418 kts | 345° |
| 2026-04-22 20:39 | 49.07284 | 12.68920 | 28605 ft | 421 kts | 345° |
| 2026-04-22 20:39 | 49.10057 | 12.67371 | 28926 ft | 424 kts | 345° |
| 2026-04-22 20:39 | 49.12845 | 12.65812 | 29268 ft | 427 kts | 345° |
| 2026-04-22 20:40 | 49.15611 | 12.64265 | 29594 ft | 431 kts | 345° |
| 2026-04-22 20:40 | 49.18438 | 12.62684 | 29919 ft | 434 kts | 345° |
| 2026-04-22 20:40 | 49.21286 | 12.61087 | 30230 ft | 437 kts | 345° |
| 2026-04-22 20:40 | 49.24157 | 12.59473 | 30547 ft | 440 kts | 345° |
| 2026-04-22 20:41 | 49.27040 | 12.57847 | 30866 ft | 442 kts | 345° |
| 2026-04-22 20:41 | 49.29932 | 12.56209 | 31180 ft | 445 kts | 345° |
| 2026-04-22 20:41 | 49.32798 | 12.54345 | 31465 ft | 452 kts | 337° |
| 2026-04-22 20:41 | 49.35501 | 12.51798 | 31766 ft | 460 kts | 328° |
| 2026-04-22 20:42 | 49.38029 | 12.48757 | 32177 ft | 460 kts | 326° |
| 2026-04-22 20:42 | 49.40535 | 12.45700 | 32591 ft | 459 kts | 326° |
| 2026-04-22 20:42 | 49.43037 | 12.42650 | 33005 ft | 458 kts | 326° |
| 2026-04-22 20:42 | 49.45534 | 12.39608 | 33412 ft | 456 kts | 326° |
| 2026-04-22 20:43 | 49.46338 | 12.38628 | 33547 ft | 456 kts | 326° |
| 2026-04-22 20:43 | 49.50495 | 12.33551 | 34182 ft | 455 kts | 326° |
| 2026-04-22 20:43 | 49.52966 | 12.30529 | 34285 ft | 451 kts | 326° |
| 2026-04-22 20:44 | 49.57833 | 12.24561 | 34301 ft | 445 kts | 326° |
| 2026-04-22 20:44 | 49.62636 | 12.18656 | 34301 ft | 444 kts | 326° |
| 2026-04-22 20:45 | 49.67470 | 12.12706 | 34301 ft | 444 kts | 326° |
| 2026-04-22 20:45 | 49.72706 | 12.07873 | 34303 ft | 434 kts | 343° |
| 2026-04-22 20:46 | 49.81305 | 12.03827 | 34297 ft | 430 kts | 348° |
| 2026-04-22 20:46 | 49.87048 | 12.01192 | 34293 ft | 430 kts | 348° |
| 2026-04-22 20:47 | 49.92792 | 11.98545 | 34292 ft | 431 kts | 348° |
| 2026-04-22 20:47 | 49.98541 | 11.95884 | 34295 ft | 431 kts | 348° |
| 2026-04-22 20:48 | 50.04256 | 11.93236 | 34299 ft | 431 kts | 348° |
| 2026-04-22 20:48 | 50.09997 | 11.90568 | 34301 ft | 431 kts | 348° |
| 2026-04-22 20:49 | 50.15749 | 11.87898 | 34301 ft | 430 kts | 348° |
| 2026-04-22 20:49 | 50.21492 | 11.85244 | 34310 ft | 431 kts | 348° |
| 2026-04-22 20:50 | 50.27239 | 11.82573 | 34311 ft | 431 kts | 348° |
| 2026-04-22 20:50 | 50.32986 | 11.79883 | 34310 ft | 431 kts | 348° |
| 2026-04-22 20:51 | 50.38728 | 11.77181 | 34313 ft | 431 kts | 348° |
| 2026-04-22 20:51 | 50.44473 | 11.74476 | 34317 ft | 431 kts | 348° |
| 2026-04-22 20:52 | 50.50224 | 11.71766 | 34312 ft | 431 kts | 348° |
| 2026-04-22 20:52 | 50.55976 | 11.69054 | 34311 ft | 432 kts | 348° |
| 2026-04-22 20:53 | 50.61696 | 11.66357 | 34313 ft | 432 kts | 348° |
| 2026-04-22 20:53 | 50.67466 | 11.63619 | 34311 ft | 433 kts | 348° |
| 2026-04-22 20:54 | 50.73238 | 11.60865 | 34314 ft | 433 kts | 348° |
| 2026-04-22 20:54 | 50.79014 | 11.58096 | 34317 ft | 434 kts | 348° |
| 2026-04-22 20:55 | 50.84802 | 11.55322 | 34318 ft | 434 kts | 348° |
| 2026-04-22 20:55 | 50.90592 | 11.52547 | 34318 ft | 435 kts | 349° |
| 2026-04-22 20:56 | 50.96399 | 11.49754 | 34319 ft | 436 kts | 348° |
| 2026-04-22 20:56 | 51.02165 | 11.46969 | 34327 ft | 436 kts | 349° |
| 2026-04-22 20:57 | 51.07987 | 11.44161 | 34326 ft | 437 kts | 349° |
| 2026-04-22 20:57 | 51.13812 | 11.41340 | 34326 ft | 437 kts | 349° |
| 2026-04-22 20:58 | 51.19636 | 11.38504 | 34327 ft | 438 kts | 349° |
| 2026-04-22 20:58 | 51.25468 | 11.35666 | 34329 ft | 438 kts | 349° |
| 2026-04-22 20:59 | 51.30324 | 11.33294 | 34328 ft | 439 kts | 349° |
| 2026-04-22 20:59 | 51.36172 | 11.30419 | 34326 ft | 439 kts | 349° |
| 2026-04-22 21:00 | 51.42979 | 11.27068 | 34324 ft | 440 kts | 349° |
| 2026-04-22 21:00 | 51.47882 | 11.24656 | 34324 ft | 440 kts | 349° |
| 2026-04-22 21:01 | 51.53751 | 11.21775 | 34324 ft | 441 kts | 349° |
| 2026-04-22 21:01 | 51.59615 | 11.18871 | 34322 ft | 441 kts | 349° |
| 2026-04-22 21:02 | 51.65475 | 11.15957 | 34316 ft | 441 kts | 349° |
| 2026-04-22 21:02 | 51.71300 | 11.13060 | 34316 ft | 441 kts | 349° |
| 2026-04-22 21:03 | 51.77179 | 11.10122 | 34314 ft | 442 kts | 349° |
| 2026-04-22 21:03 | 51.83055 | 11.07170 | 34313 ft | 442 kts | 349° |
| 2026-04-22 21:04 | 51.88975 | 11.04849 | 34321 ft | 433 kts | 359° |
| 2026-04-22 21:04 | 51.94951 | 11.03616 | 34315 ft | 433 kts | 359° |
| 2026-04-22 21:05 | 52.00937 | 11.02338 | 34310 ft | 433 kts | 359° |
| 2026-04-22 21:05 | 52.06892 | 11.01049 | 34300 ft | 434 kts | 359° |
| 2026-04-22 21:06 | 52.12891 | 10.99753 | 34306 ft | 435 kts | 359° |
| 2026-04-22 21:06 | 52.18905 | 10.98461 | 34309 ft | 435 kts | 359° |
| 2026-04-22 21:07 | 52.24881 | 10.97179 | 34313 ft | 435 kts | 359° |
| 2026-04-22 21:07 | 52.30894 | 10.95876 | 34308 ft | 436 kts | 359° |
| 2026-04-22 21:08 | 52.36910 | 10.94576 | 34272 ft | 437 kts | 359° |
| 2026-04-22 21:08 | 52.39928 | 10.93925 | 34020 ft | 437 kts | 360° |
| 2026-04-22 21:08 | 52.42949 | 10.93271 | 33764 ft | 438 kts | 360° |
| 2026-04-22 21:09 | 52.45981 | 10.92607 | 33523 ft | 439 kts | 359° |
| 2026-04-22 21:09 | 52.49011 | 10.91940 | 33272 ft | 439 kts | 359° |
| 2026-04-22 21:09 | 52.52035 | 10.91277 | 33017 ft | 440 kts | 359° |
| 2026-04-22 21:09 | 52.55062 | 10.90425 | 32259 ft | 447 kts | 355° |
| 2026-04-22 21:10 | 52.58139 | 10.89297 | 31051 ft | 456 kts | 353° |
| 2026-04-22 21:10 | 52.61249 | 10.88039 | 29859 ft | 462 kts | 351° |
| 2026-04-22 21:10 | 52.64340 | 10.86706 | 29173 ft | 455 kts | 351° |
| 2026-04-22 21:10 | 52.67372 | 10.85378 | 28467 ft | 447 kts | 350° |
| 2026-04-22 21:11 | 52.70357 | 10.84086 | 27720 ft | 441 kts | 350° |
| 2026-04-22 21:11 | 52.73310 | 10.82833 | 26974 ft | 435 kts | 350° |
| 2026-04-22 21:11 | 52.76226 | 10.81717 | 26410 ft | 421 kts | 356° |
| 2026-04-22 21:11 | 52.79058 | 10.81509 | 26185 ft | 400 kts | 4° |
| 2026-04-22 21:12 | 52.81814 | 10.81535 | 25682 ft | 391 kts | 4° |
| 2026-04-22 21:12 | 52.84519 | 10.81593 | 25100 ft | 386 kts | 4° |
| 2026-04-22 21:12 | 52.87189 | 10.81677 | 24516 ft | 382 kts | 4° |
| 2026-04-22 21:12 | 52.89838 | 10.81796 | 23928 ft | 378 kts | 4° |
| 2026-04-22 21:13 | 52.92456 | 10.81943 | 23342 ft | 375 kts | 4° |
| 2026-04-22 21:13 | 52.95050 | 10.82105 | 22751 ft | 370 kts | 4° |
| 2026-04-22 21:13 | 52.97618 | 10.82279 | 22211 ft | 367 kts | 4° |
| 2026-04-22 21:13 | 53.00151 | 10.82463 | 21617 ft | 363 kts | 5° |
| 2026-04-22 21:14 | 53.02670 | 10.82658 | 21140 ft | 361 kts | 4° |
| 2026-04-22 21:14 | 53.05161 | 10.82858 | 20675 ft | 357 kts | 4° |
| 2026-04-22 21:14 | 53.07638 | 10.83070 | 20185 ft | 354 kts | 5° |
| 2026-04-22 21:14 | 53.10093 | 10.83291 | 19499 ft | 355 kts | 4° |
| 2026-04-22 21:15 | 53.12582 | 10.83530 | 18741 ft | 360 kts | 5° |
| 2026-04-22 21:15 | 53.15081 | 10.83788 | 18165 ft | 358 kts | 5° |
| 2026-04-22 21:15 | 53.17557 | 10.83656 | 17609 ft | 356 kts | 350° |
| 2026-04-22 21:15 | 53.19876 | 10.82363 | 17070 ft | 355 kts | 338° |
| 2026-04-22 21:16 | 53.22134 | 10.80751 | 16511 ft | 352 kts | 338° |
| 2026-04-22 21:16 | 53.24379 | 10.79129 | 15957 ft | 349 kts | 338° |
| 2026-04-22 21:16 | 53.26582 | 10.77525 | 15251 ft | 342 kts | 338° |
| 2026-04-22 21:16 | 53.28773 | 10.75925 | 14322 ft | 345 kts | 338° |
| 2026-04-22 21:17 | 53.30961 | 10.74331 | 13585 ft | 340 kts | 338° |
| 2026-04-22 21:17 | 53.33115 | 10.72764 | 12854 ft | 335 kts | 338° |
| 2026-04-22 21:17 | 53.35243 | 10.71218 | 12102 ft | 331 kts | 338° |
| 2026-04-22 21:17 | 53.37311 | 10.69711 | 11704 ft | 317 kts | 338° |
| 2026-04-22 21:18 | 53.39306 | 10.68255 | 11221 ft | 311 kts | 338° |
| 2026-04-22 21:18 | 53.41286 | 10.66816 | 10788 ft | 309 kts | 338° |
| 2026-04-22 21:18 | 53.43248 | 10.65386 | 10373 ft | 304 kts | 338° |
| 2026-04-22 21:18 | 53.45132 | 10.64010 | 10123 ft | 287 kts | 338° |
| 2026-04-22 21:19 | 53.46924 | 10.62698 | 9881 ft | 275 kts | 337° |
| 2026-04-22 21:19 | 53.48666 | 10.61424 | 9754 ft | 272 kts | 337° |
| 2026-04-22 21:19 | 53.50396 | 10.60156 | 9619 ft | 271 kts | 337° |
| 2026-04-22 21:19 | 53.52120 | 10.58885 | 9344 ft | 266 kts | 337° |
| 2026-04-22 21:20 | 53.53776 | 10.57663 | 9176 ft | 254 kts | 337° |
| 2026-04-22 21:20 | 53.55357 | 10.56500 | 9000 ft | 243 kts | 337° |
| 2026-04-22 21:20 | 53.56916 | 10.55354 | 8414 ft | 251 kts | 336° |
| 2026-04-22 21:20 | 53.58538 | 10.54160 | 7965 ft | 252 kts | 337° |
| 2026-04-22 21:21 | 53.60116 | 10.53001 | 7509 ft | 249 kts | 336° |
| 2026-04-22 21:21 | 53.61693 | 10.51843 | 6996 ft | 247 kts | 336° |
| 2026-04-22 21:21 | 53.63261 | 10.50689 | 6497 ft | 244 kts | 336° |
| 2026-04-22 21:21 | 53.64812 | 10.49541 | 5995 ft | 242 kts | 336° |
| 2026-04-22 21:22 | 53.66355 | 10.48399 | 5513 ft | 241 kts | 336° |
| 2026-04-22 21:22 | 53.67875 | 10.47273 | 5029 ft | 237 kts | 336° |
| 2026-04-22 21:22 | 53.69379 | 10.46159 | 4630 ft | 231 kts | 336° |
| 2026-04-22 21:22 | 53.70806 | 10.45105 | 4474 ft | 219 kts | 336° |
| 2026-04-22 21:23 | 53.72186 | 10.44076 | 4144 ft | 215 kts | 334° |
| 2026-04-22 21:23 | 53.73305 | 10.42474 | 3746 ft | 214 kts | 302° |
| 2026-04-22 21:23 | 53.73671 | 10.40061 | 3369 ft | 217 kts | 271° |
| 2026-04-22 21:23 | 53.73515 | 10.37506 | 2986 ft | 219 kts | 265° |
| 2026-04-22 21:24 | 53.73295 | 10.34976 | 2631 ft | 217 kts | 264° |
| 2026-04-22 21:24 | 53.73086 | 10.32465 | 2492 ft | 214 kts | 264° |
| 2026-04-22 21:24 | 53.72891 | 10.30058 | 2490 ft | 202 kts | 264° |
| 2026-04-22 21:24 | 53.72704 | 10.27728 | 2493 ft | 198 kts | 264° |
| 2026-04-22 21:25 | 53.72518 | 10.25429 | 2501 ft | 197 kts | 264° |
| 2026-04-22 21:25 | 53.72331 | 10.23134 | 2502 ft | 196 kts | 264° |
| 2026-04-22 21:25 | 53.72146 | 10.20895 | 2519 ft | 189 kts | 264° |
| 2026-04-22 21:25 | 53.71959 | 10.18700 | 2513 ft | 188 kts | 264° |
| 2026-04-22 21:26 | 53.71658 | 10.16582 | 2435 ft | 186 kts | 248° |
| 2026-04-22 21:26 | 53.70906 | 10.14824 | 2263 ft | 184 kts | 233° |
| 2026-04-22 21:26 | 53.70109 | 10.13204 | 2041 ft | 174 kts | 234° |
| 2026-04-22 21:26 | 53.69351 | 10.11658 | 1828 ft | 170 kts | 233° |
| 2026-04-22 21:27 | 53.68601 | 10.10129 | 1606 ft | 168 kts | 233° |
| 2026-04-22 21:27 | 53.67874 | 10.08651 | 1375 ft | 154 kts | 232° |
| 2026-04-22 21:27 | 53.67233 | 10.07349 | 1142 ft | 136 kts | 232° |
| 2026-04-22 21:27 | 53.66645 | 10.06162 | 967 ft | 129 kts | 233° |
| 2026-04-22 21:28 | 53.66080 | 10.05014 | 798 ft | 126 kts | 232° |
| 2026-04-22 21:28 | 53.65530 | 10.03874 | 645 ft | 126 kts | 233° |
| 2026-04-22 21:28 | 53.64967 | 10.02735 | 474 ft | 125 kts | 233° |
| 2026-04-22 21:28 | 53.64412 | 10.01607 | 317 ft | 125 kts | 232° |
| 2026-04-22 21:29 | 53.63863 | 10.00487 | 171 ft | 124 kts | 233° |
| 2026-04-22 21:29 | 53.63323 | 9.99407 | 49 ft | 118 kts | 231° |
| 2026-04-22 21:29 | 53.62931 | 9.98601 | 45 ft | 46 kts | 229° |
| 2026-04-22 21:29 | 53.62859 | 9.98466 | 43 ft | 10 kts | 226° |
| 2026-04-22 21:30 | 53.62760 | 9.98364 | 43 ft | 20 kts | 181° |
| 2026-04-22 21:30 | 53.62683 | 9.98442 | 46 ft | 5 kts | 141° |
| 2026-04-22 21:30 | 53.62681 | 9.98444 | 47 ft | 0 kts | 140° |
| 2026-04-22 21:31 | 53.62673 | 9.98486 | 46 ft | 8 kts | 89° |
| 2026-04-22 21:31 | 53.62718 | 9.98608 | 45 ft | 15 kts | 50° |
| 2026-04-22 21:31 | 53.62796 | 9.98764 | 47 ft | 20 kts | 50° |
| 2026-04-22 21:31 | 53.62897 | 9.98975 | 46 ft | 26 kts | 51° |
| 2026-04-22 21:32 | 53.62995 | 9.99170 | 46 ft | 21 kts | 50° |
| 2026-04-22 21:32 | 53.63080 | 9.99355 | 46 ft | 20 kts | 54° |
| 2026-04-22 21:32 | 53.63172 | 9.99568 | 46 ft | 26 kts | 52° |
| 2026-04-22 21:32 | 53.63279 | 9.99767 | 47 ft | 21 kts | 46° |
| 2026-04-22 21:33 | 53.63356 | 9.99917 | 48 ft | 18 kts | 50° |
| 2026-04-22 21:33 | 53.63444 | 10.00097 | 47 ft | 17 kts | 50° |
| 2026-04-22 21:33 | 53.63465 | 10.00214 | 46 ft | 11 kts | 138° |
| 2026-04-22 21:33 | 53.63395 | 10.00224 | 48 ft | 9 kts | 178° |
| 2026-04-22 21:34 | 53.63329 | 10.00268 | 48 ft | 13 kts | 110° |